sensor_id;sensor_type;location;lat;lon;timestamp;pressure;altitude;pressure_sealevel;temperature;humidity
68456;BME280;55437;55.046;38.838;2023-07-31T00:00:44;99201.38;;;14.77;80.88
68456;BME280;55437;55.046;38.838;2023-07-31T00:03:12;99194.84;;;14.72;80.79
68456;BME280;55437;55.046;38.838;2023-07-31T00:05:37;99202.75;;;14.69;81.12
68456;BME280;55437;55.046;38.838;2023-07-31T00:08:03;99204.50;;;14.68;81.06
68456;BME280;55437;55.046;38.838;2023-07-31T00:10:30;99206.44;;;14.65;81.21
68456;BME280;55437;55.046;38.838;2023-07-31T00:12:55;99212.53;;;14.64;81.19
68456;BME280;55437;55.046;38.838;2023-07-31T00:15:22;99210.84;;;14.63;81.40
68456;BME280;55437;55.046;38.838;2023-07-31T00:17:47;99214.34;;;14.62;81.54
68456;BME280;55437;55.046;38.838;2023-07-31T00:20:13;99216.22;;;14.60;81.44
68456;BME280;55437;55.046;38.838;2023-07-31T00:22:39;99222.47;;;14.56;81.52
68456;BME280;55437;55.046;38.838;2023-07-31T00:25:05;99214.66;;;14.57;81.43
68456;BME280;55437;55.046;38.838;2023-07-31T00:27:32;99213.81;;;14.57;81.59
68456;BME280;55437;55.046;38.838;2023-07-31T00:29:58;99216.47;;;14.55;81.67
68456;BME280;55437;55.046;38.838;2023-07-31T00:32:25;99203.00;;;14.50;81.69
68456;BME280;55437;55.046;38.838;2023-07-31T00:34:51;99214.16;;;14.51;81.79
68456;BME280;55437;55.046;38.838;2023-07-31T00:37:16;99208.28;;;14.49;81.78
68456;BME280;55437;55.046;38.838;2023-07-31T00:39:42;99213.59;;;14.46;81.85
68456;BME280;55437;55.046;38.838;2023-07-31T00:42:08;99216.19;;;14.46;81.86
68456;BME280;55437;55.046;38.838;2023-07-31T00:44:34;99212.84;;;14.44;81.73
68456;BME280;55437;55.046;38.838;2023-07-31T00:47:00;99212.25;;;14.38;81.83
68456;BME280;55437;55.046;38.838;2023-07-31T00:49:27;99219.16;;;14.38;81.89
68456;BME280;55437;55.046;38.838;2023-07-31T00:51:53;99210.44;;;14.40;81.93
68456;BME280;55437;55.046;38.838;2023-07-31T00:54:20;99213.84;;;14.41;81.88
68456;BME280;55437;55.046;38.838;2023-07-31T00:56:46;99206.03;;;14.43;81.96
68456;BME280;55437;55.046;38.838;2023-07-31T00:59:14;99214.59;;;14.43;82.02
68456;BME280;55437;55.046;38.838;2023-07-31T01:01:41;99213.94;;;14.39;82.06
68456;BME280;55437;55.046;38.838;2023-07-31T01:04:07;99218.31;;;14.37;82.08
68456;BME280;55437;55.046;38.838;2023-07-31T01:06:44;99214.19;;;14.35;81.94
68456;BME280;55437;55.046;38.838;2023-07-31T01:11:53;99216.78;;;14.35;81.79
68456;BME280;55437;55.046;38.838;2023-07-31T01:14:22;99218.31;;;14.37;81.73
68456;BME280;55437;55.046;38.838;2023-07-31T01:16:48;99219.78;;;14.43;81.58
68456;BME280;55437;55.046;38.838;2023-07-31T01:19:15;99213.59;;;14.46;81.50
68456;BME280;55437;55.046;38.838;2023-07-31T01:24:40;99209.44;;;14.43;81.33
68456;BME280;55437;55.046;38.838;2023-07-31T01:27:15;99209.44;;;14.43;81.53
68456;BME280;55437;55.046;38.838;2023-07-31T01:29:47;99207.91;;;14.39;81.39
68456;BME280;55437;55.046;38.838;2023-07-31T01:32:17;99208.94;;;14.36;81.53
68456;BME280;55437;55.046;38.838;2023-07-31T01:34:44;99217.69;;;14.34;81.81
68456;BME280;55437;55.046;38.838;2023-07-31T01:37:10;99213.38;;;14.34;81.69
68456;BME280;55437;55.046;38.838;2023-07-31T01:39:36;99214.81;;;14.38;81.67
68456;BME280;55437;55.046;38.838;2023-07-31T01:42:03;99223.09;;;14.45;81.45
68456;BME280;55437;55.046;38.838;2023-07-31T01:44:28;99228.41;;;14.58;81.29
68456;BME280;55437;55.046;38.838;2023-07-31T01:46:54;99219.59;;;14.90;80.69
68456;BME280;55437;55.046;38.838;2023-07-31T01:49:20;99223.63;;;15.37;79.40
68456;BME280;55437;55.046;38.838;2023-07-31T01:51:46;99225.47;;;15.77;78.15
68456;BME280;55437;55.046;38.838;2023-07-31T01:54:12;99223.44;;;16.22;76.88
68456;BME280;55437;55.046;38.838;2023-07-31T01:56:38;99218.69;;;16.68;75.48
68456;BME280;55437;55.046;38.838;2023-07-31T01:59:04;99215.88;;;17.09;73.97
68456;BME280;55437;55.046;38.838;2023-07-31T02:01:30;99222.69;;;17.48;72.86
68456;BME280;55437;55.046;38.838;2023-07-31T02:03:56;99223.09;;;17.91;71.69
68456;BME280;55437;55.046;38.838;2023-07-31T02:06:23;99223.03;;;18.28;70.34
68456;BME280;55437;55.046;38.838;2023-07-31T02:08:49;99226.47;;;18.63;68.95
68456;BME280;55437;55.046;38.838;2023-07-31T02:11:15;99231.38;;;19.01;67.44
68456;BME280;55437;55.046;38.838;2023-07-31T02:13:42;99240.84;;;19.36;66.24
68456;BME280;55437;55.046;38.838;2023-07-31T02:16:08;99236.22;;;19.84;65.06
68456;BME280;55437;55.046;38.838;2023-07-31T02:18:35;99230.97;;;20.38;63.50
68456;BME280;55437;55.046;38.838;2023-07-31T02:21:01;99235.06;;;20.73;62.05
68456;BME280;55437;55.046;38.838;2023-07-31T02:23:27;99229.22;;;21.11;60.96
68456;BME280;55437;55.046;38.838;2023-07-31T02:25:53;99236.31;;;21.60;59.51
68456;BME280;55437;55.046;38.838;2023-07-31T02:28:19;99234.47;;;22.10;57.86
68456;BME280;55437;55.046;38.838;2023-07-31T02:30:45;99240.97;;;22.45;56.77
68456;BME280;55437;55.046;38.838;2023-07-31T02:33:14;99239.44;;;22.81;55.76
68456;BME280;55437;55.046;38.838;2023-07-31T02:35:42;99243.41;;;23.31;54.38
68456;BME280;55437;55.046;38.838;2023-07-31T02:38:07;99243.00;;;23.91;52.73
68456;BME280;55437;55.046;38.838;2023-07-31T02:40:33;99242.34;;;24.42;51.54
68456;BME280;55437;55.046;38.838;2023-07-31T02:42:59;99236.00;;;24.70;50.60
68456;BME280;55437;55.046;38.838;2023-07-31T02:45:25;99236.63;;;25.16;49.58
68456;BME280;55437;55.046;38.838;2023-07-31T02:47:52;99239.34;;;25.66;48.08
68456;BME280;55437;55.046;38.838;2023-07-31T02:50:17;99237.34;;;26.18;46.94
68456;BME280;55437;55.046;38.838;2023-07-31T02:52:43;99240.66;;;26.61;45.69
68456;BME280;55437;55.046;38.838;2023-07-31T02:55:09;99236.84;;;26.96;44.85
68456;BME280;55437;55.046;38.838;2023-07-31T02:57:35;99238.22;;;27.31;44.03
68456;BME280;55437;55.046;38.838;2023-07-31T03:00:01;99239.28;;;27.61;43.33
68456;BME280;55437;55.046;38.838;2023-07-31T03:02:32;99236.78;;;27.90;42.87
68456;BME280;55437;55.046;38.838;2023-07-31T03:04:58;99237.63;;;28.22;42.19
68456;BME280;55437;55.046;38.838;2023-07-31T03:07:24;99245.56;;;28.59;41.45
68456;BME280;55437;55.046;38.838;2023-07-31T03:09:49;99236.19;;;28.94;40.61
68456;BME280;55437;55.046;38.838;2023-07-31T03:12:15;99245.22;;;29.15;40.31
68456;BME280;55437;55.046;38.838;2023-07-31T03:14:41;99233.19;;;29.42;39.76
68456;BME280;55437;55.046;38.838;2023-07-31T03:17:07;99237.38;;;29.21;39.23
68456;BME280;55437;55.046;38.838;2023-07-31T03:19:33;99233.34;;;28.21;40.41
68456;BME280;55437;55.046;38.838;2023-07-31T03:21:59;99229.88;;;27.11;42.03
68456;BME280;55437;55.046;38.838;2023-07-31T03:24:28;99231.88;;;26.12;43.63
68456;BME280;55437;55.046;38.838;2023-07-31T03:26:55;99229.81;;;25.31;45.54
68456;BME280;55437;55.046;38.838;2023-07-31T03:29:21;99230.34;;;24.83;46.67
68456;BME280;55437;55.046;38.838;2023-07-31T03:31:47;99226.44;;;24.44;47.37
68456;BME280;55437;55.046;38.838;2023-07-31T03:34:13;99232.00;;;24.40;47.71
68456;BME280;55437;55.046;38.838;2023-07-31T03:36:39;99236.78;;;24.45;48.06
68456;BME280;55437;55.046;38.838;2023-07-31T03:39:05;99246.91;;;24.58;48.10
68456;BME280;55437;55.046;38.838;2023-07-31T03:41:31;99244.50;;;25.50;46.31
68456;BME280;55437;55.046;38.838;2023-07-31T03:43:57;99250.34;;;26.36;44.63
68456;BME280;55437;55.046;38.838;2023-07-31T03:46:24;99248.88;;;26.34;44.30
68456;BME280;55437;55.046;38.838;2023-07-31T03:48:50;99251.63;;;26.16;44.49
68456;BME280;55437;55.046;38.838;2023-07-31T03:51:17;99243.06;;;26.06;45.00
68456;BME280;55437;55.046;38.838;2023-07-31T03:53:43;99242.47;;;26.28;44.63
68456;BME280;55437;55.046;38.838;2023-07-31T03:56:10;99241.75;;;26.10;44.99
68456;BME280;55437;55.046;38.838;2023-07-31T03:58:36;99246.16;;;25.93;45.31
68456;BME280;55437;55.046;38.838;2023-07-31T04:01:03;99246.56;;;25.64;46.10
68456;BME280;55437;55.046;38.838;2023-07-31T04:03:30;99238.56;;;25.40;46.39
68456;BME280;55437;55.046;38.838;2023-07-31T04:05:56;99232.22;;;25.17;47.08
68456;BME280;55437;55.046;38.838;2023-07-31T04:08:22;99232.84;;;25.10;47.34
68456;BME280;55437;55.046;38.838;2023-07-31T04:10:48;99233.03;;;25.17;47.62
68456;BME280;55437;55.046;38.838;2023-07-31T04:13:14;99238.75;;;25.12;47.88
68456;BME280;55437;55.046;38.838;2023-07-31T04:15:48;99235.59;;;24.83;48.23
68456;BME280;55437;55.046;38.838;2023-07-31T04:18:15;99244.88;;;24.52;48.76
68456;BME280;55437;55.046;38.838;2023-07-31T04:20:40;99241.06;;;24.28;49.44
68456;BME280;55437;55.046;38.838;2023-07-31T04:23:06;99243.88;;;24.17;49.94
68456;BME280;55437;55.046;38.838;2023-07-31T04:25:32;99244.75;;;24.35;49.81
68456;BME280;55437;55.046;38.838;2023-07-31T04:28:00;99247.53;;;24.34;49.52
68456;BME280;55437;55.046;38.838;2023-07-31T04:30:26;99244.84;;;24.26;49.84
68456;BME280;55437;55.046;38.838;2023-07-31T04:32:52;99249.56;;;24.22;50.02
68456;BME280;55437;55.046;38.838;2023-07-31T04:35:18;99241.72;;;24.13;50.27
68456;BME280;55437;55.046;38.838;2023-07-31T04:37:44;99247.41;;;24.08;50.49
68456;BME280;55437;55.046;38.838;2023-07-31T04:40:13;99253.34;;;24.10;50.53
68456;BME280;55437;55.046;38.838;2023-07-31T04:42:40;99257.13;;;24.25;50.43
68456;BME280;55437;55.046;38.838;2023-07-31T04:45:08;99256.91;;;24.36;50.31
68456;BME280;55437;55.046;38.838;2023-07-31T04:47:34;99256.81;;;24.90;49.53
68456;BME280;55437;55.046;38.838;2023-07-31T04:50:00;99262.34;;;25.64;48.28
68456;BME280;55437;55.046;38.838;2023-07-31T04:52:25;99256.28;;;26.38;46.87
68456;BME280;55437;55.046;38.838;2023-07-31T04:54:51;99252.25;;;27.23;45.81
68456;BME280;55437;55.046;38.838;2023-07-31T04:57:19;99260.75;;;27.89;44.22
68456;BME280;55437;55.046;38.838;2023-07-31T04:59:44;99264.81;;;28.68;42.88
68456;BME280;55437;55.046;38.838;2023-07-31T05:02:12;99261.66;;;29.40;42.10
68456;BME280;55437;55.046;38.838;2023-07-31T05:04:39;99258.81;;;30.06;40.80
68456;BME280;55437;55.046;38.838;2023-07-31T05:07:05;99259.09;;;30.54;39.76
68456;BME280;55437;55.046;38.838;2023-07-31T05:09:31;99255.13;;;30.71;38.88
68456;BME280;55437;55.046;38.838;2023-07-31T05:11:57;99255.84;;;30.59;39.20
68456;BME280;55437;55.046;38.838;2023-07-31T05:14:23;99255.81;;;30.31;39.47
68456;BME280;55437;55.046;38.838;2023-07-31T05:16:49;99259.66;;;30.28;39.36
68456;BME280;55437;55.046;38.838;2023-07-31T05:19:15;99255.59;;;30.32;38.90
68456;BME280;55437;55.046;38.838;2023-07-31T05:21:40;99258.50;;;30.37;38.81
68456;BME280;55437;55.046;38.838;2023-07-31T05:24:06;99259.31;;;30.38;39.02
68456;BME280;55437;55.046;38.838;2023-07-31T05:26:32;99259.25;;;30.74;38.49
68456;BME280;55437;55.046;38.838;2023-07-31T05:28:58;99257.00;;;31.33;37.45
68456;BME280;55437;55.046;38.838;2023-07-31T05:31:24;99258.22;;;31.72;37.16
68456;BME280;55437;55.046;38.838;2023-07-31T05:33:50;99261.16;;;32.03;36.50
68456;BME280;55437;55.046;38.838;2023-07-31T05:36:17;99263.47;;;32.39;35.62
68456;BME280;55437;55.046;38.838;2023-07-31T05:38:43;99267.59;;;32.68;34.90
68456;BME280;55437;55.046;38.838;2023-07-31T05:41:13;99268.44;;;32.82;34.71
68456;BME280;55437;55.046;38.838;2023-07-31T05:43:39;99260.66;;;32.80;34.91
68456;BME280;55437;55.046;38.838;2023-07-31T05:46:05;99262.91;;;32.90;34.56
68456;BME280;55437;55.046;38.838;2023-07-31T05:48:32;99260.19;;;33.16;34.58
68456;BME280;55437;55.046;38.838;2023-07-31T05:51:00;99262.34;;;33.52;33.63
68456;BME280;55437;55.046;38.838;2023-07-31T05:53:26;99262.06;;;33.80;32.97
68456;BME280;55437;55.046;38.838;2023-07-31T05:55:52;99268.78;;;34.21;32.18
68456;BME280;55437;55.046;38.838;2023-07-31T05:58:18;99269.25;;;34.67;31.50
68456;BME280;55437;55.046;38.838;2023-07-31T06:00:44;99265.44;;;35.07;30.60
68456;BME280;55437;55.046;38.838;2023-07-31T06:03:10;99264.28;;;35.39;30.66
68456;BME280;55437;55.046;38.838;2023-07-31T06:05:36;99263.84;;;35.60;30.34
68456;BME280;55437;55.046;38.838;2023-07-31T06:08:02;99268.72;;;35.82;30.08
68456;BME280;55437;55.046;38.838;2023-07-31T06:10:28;99267.31;;;36.09;29.95
68456;BME280;55437;55.046;38.838;2023-07-31T06:12:54;99271.72;;;36.33;29.01
68456;BME280;55437;55.046;38.838;2023-07-31T06:15:20;99271.63;;;36.63;28.70
68456;BME280;55437;55.046;38.838;2023-07-31T06:17:46;99275.06;;;36.94;28.53
68456;BME280;55437;55.046;38.838;2023-07-31T06:20:15;99278.88;;;37.21;27.94
68456;BME280;55437;55.046;38.838;2023-07-31T06:22:40;99271.53;;;37.28;28.29
68456;BME280;55437;55.046;38.838;2023-07-31T06:25:06;99271.13;;;37.48;27.42
68456;BME280;55437;55.046;38.838;2023-07-31T06:27:32;99270.44;;;37.64;26.93
68456;BME280;55437;55.046;38.838;2023-07-31T06:29:58;99271.09;;;37.71;26.91
68456;BME280;55437;55.046;38.838;2023-07-31T06:32:23;99272.97;;;37.71;26.55
68456;BME280;55437;55.046;38.838;2023-07-31T06:34:49;99264.25;;;37.92;26.39
68456;BME280;55437;55.046;38.838;2023-07-31T06:37:16;99265.25;;;38.03;25.85
68456;BME280;55437;55.046;38.838;2023-07-31T06:39:42;99271.91;;;38.00;26.23
68456;BME280;55437;55.046;38.838;2023-07-31T06:42:08;99270.59;;;38.14;25.07
68456;BME280;55437;55.046;38.838;2023-07-31T06:44:35;99274.41;;;38.18;25.32
68456;BME280;55437;55.046;38.838;2023-07-31T06:47:01;99271.00;;;38.23;25.15
68456;BME280;55437;55.046;38.838;2023-07-31T06:49:28;99275.22;;;38.19;24.78
68456;BME280;55437;55.046;38.838;2023-07-31T06:52:19;99272.50;;;38.02;24.94
68456;BME280;55437;55.046;38.838;2023-07-31T06:55:00;99275.28;;;37.79;25.00
68456;BME280;55437;55.046;38.838;2023-07-31T06:57:29;99280.00;;;37.48;24.95
68456;BME280;55437;55.046;38.838;2023-07-31T06:59:55;99274.97;;;37.52;24.93
68456;BME280;55437;55.046;38.838;2023-07-31T07:02:21;99276.91;;;37.68;24.74
68456;BME280;55437;55.046;38.838;2023-07-31T07:04:47;99280.66;;;37.96;25.09
68456;BME280;55437;55.046;38.838;2023-07-31T07:07:15;99286.19;;;37.89;24.91
68456;BME280;55437;55.046;38.838;2023-07-31T07:09:41;99285.78;;;37.57;25.74
68456;BME280;55437;55.046;38.838;2023-07-31T07:12:07;99280.03;;;37.37;26.06
68456;BME280;55437;55.046;38.838;2023-07-31T07:14:33;99283.06;;;37.40;25.40
68456;BME280;55437;55.046;38.838;2023-07-31T07:17:19;99285.13;;;37.50;25.05
68456;BME280;55437;55.046;38.838;2023-07-31T07:19:45;99284.41;;;37.55;25.38
68456;BME280;55437;55.046;38.838;2023-07-31T07:22:11;99282.78;;;37.65;25.57
68456;BME280;55437;55.046;38.838;2023-07-31T07:24:37;99286.34;;;37.71;25.93
68456;BME280;55437;55.046;38.838;2023-07-31T07:27:03;99286.31;;;37.42;25.44
68456;BME280;55437;55.046;38.838;2023-07-31T07:29:34;99289.47;;;37.28;25.39
68456;BME280;55437;55.046;38.838;2023-07-31T07:32:00;99282.69;;;37.37;25.51
68456;BME280;55437;55.046;38.838;2023-07-31T07:34:27;99287.13;;;37.43;26.05
68456;BME280;55437;55.046;38.838;2023-07-31T07:36:54;99283.53;;;37.26;25.85
68456;BME280;55437;55.046;38.838;2023-07-31T07:39:19;99290.16;;;37.35;25.77
68456;BME280;55437;55.046;38.838;2023-07-31T07:41:46;99277.81;;;37.34;26.01
68456;BME280;55437;55.046;38.838;2023-07-31T07:44:13;99284.47;;;37.20;25.90
68456;BME280;55437;55.046;38.838;2023-07-31T07:46:39;99280.41;;;36.82;25.98
68456;BME280;55437;55.046;38.838;2023-07-31T07:49:05;99280.16;;;36.72;25.68
68456;BME280;55437;55.046;38.838;2023-07-31T07:51:31;99277.47;;;36.72;26.08
68456;BME280;55437;55.046;38.838;2023-07-31T07:53:58;99281.47;;;36.39;26.05
68456;BME280;55437;55.046;38.838;2023-07-31T07:56:25;99285.34;;;36.55;25.76
68456;BME280;55437;55.046;38.838;2023-07-31T07:58:51;99284.09;;;36.58;25.10
68456;BME280;55437;55.046;38.838;2023-07-31T08:01:20;99281.41;;;36.58;25.81
68456;BME280;55437;55.046;38.838;2023-07-31T08:03:47;99282.44;;;36.57;26.15
68456;BME280;55437;55.046;38.838;2023-07-31T08:06:14;99283.72;;;36.66;25.52
68456;BME280;55437;55.046;38.838;2023-07-31T08:08:40;99282.38;;;36.75;25.41
68456;BME280;55437;55.046;38.838;2023-07-31T08:11:06;99284.56;;;36.66;24.33
68456;BME280;55437;55.046;38.838;2023-07-31T08:13:32;99283.28;;;36.57;25.50
68456;BME280;55437;55.046;38.838;2023-07-31T08:15:59;99286.16;;;36.44;25.25
68456;BME280;55437;55.046;38.838;2023-07-31T08:18:25;99288.06;;;36.25;25.84
68456;BME280;55437;55.046;38.838;2023-07-31T08:20:51;99283.44;;;34.93;27.30
68456;BME280;55437;55.046;38.838;2023-07-31T08:23:16;99288.84;;;34.55;27.92
68456;BME280;55437;55.046;38.838;2023-07-31T08:26:01;99286.69;;;34.70;28.18
68456;BME280;55437;55.046;38.838;2023-07-31T08:28:27;99278.88;;;34.75;27.22
68456;BME280;55437;55.046;38.838;2023-07-31T08:30:52;99295.50;;;34.46;28.09
68456;BME280;55437;55.046;38.838;2023-07-31T08:33:18;99288.66;;;33.29;29.47
68456;BME280;55437;55.046;38.838;2023-07-31T08:35:44;99293.34;;;33.20;29.94
68456;BME280;55437;55.046;38.838;2023-07-31T08:38:12;99297.44;;;33.16;29.80
68456;BME280;55437;55.046;38.838;2023-07-31T08:40:40;99294.38;;;33.33;29.15
68456;BME280;55437;55.046;38.838;2023-07-31T08:43:07;99296.03;;;32.94;29.88
68456;BME280;55437;55.046;38.838;2023-07-31T08:45:33;99292.13;;;33.03;29.69
68456;BME280;55437;55.046;38.838;2023-07-31T08:47:59;99289.06;;;33.00;29.81
68456;BME280;55437;55.046;38.838;2023-07-31T08:50:26;99292.56;;;32.94;29.81
68456;BME280;55437;55.046;38.838;2023-07-31T08:52:52;99290.91;;;32.46;29.64
68456;BME280;55437;55.046;38.838;2023-07-31T08:55:18;99292.75;;;31.78;30.79
68456;BME280;55437;55.046;38.838;2023-07-31T08:57:53;99289.41;;;31.29;31.70
68456;BME280;55437;55.046;38.838;2023-07-31T09:00:22;99290.81;;;30.97;32.62
68456;BME280;55437;55.046;38.838;2023-07-31T09:05:23;99282.00;;;29.90;31.46
68456;BME280;55437;55.046;38.838;2023-07-31T09:07:51;99290.56;;;29.70;32.94
68456;BME280;55437;55.046;38.838;2023-07-31T09:10:18;99296.03;;;29.69;32.98
68456;BME280;55437;55.046;38.838;2023-07-31T09:12:45;99296.09;;;29.76;34.04
68456;BME280;55437;55.046;38.838;2023-07-31T09:15:12;99291.72;;;29.83;34.43
68456;BME280;55437;55.046;38.838;2023-07-31T09:17:38;99288.94;;;29.91;34.85
68456;BME280;55437;55.046;38.838;2023-07-31T09:20:17;99296.72;;;29.92;35.09
68456;BME280;55437;55.046;38.838;2023-07-31T09:22:44;99289.44;;;29.80;34.78
68456;BME280;55437;55.046;38.838;2023-07-31T09:25:25;99291.47;;;29.63;34.45
68456;BME280;55437;55.046;38.838;2023-07-31T09:27:58;99289.91;;;29.54;34.98
68456;BME280;55437;55.046;38.838;2023-07-31T09:30:25;99288.81;;;29.48;35.06
68456;BME280;55437;55.046;38.838;2023-07-31T09:33:00;99296.50;;;29.43;35.42
68456;BME280;55437;55.046;38.838;2023-07-31T09:35:29;99290.44;;;29.34;34.94
68456;BME280;55437;55.046;38.838;2023-07-31T09:38:20;99285.97;;;29.20;34.79
68456;BME280;55437;55.046;38.838;2023-07-31T09:40:47;99284.88;;;29.15;35.31
68456;BME280;55437;55.046;38.838;2023-07-31T09:43:18;99298.53;;;29.03;34.73
68456;BME280;55437;55.046;38.838;2023-07-31T09:45:45;99292.03;;;28.91;34.78
68456;BME280;55437;55.046;38.838;2023-07-31T09:48:13;99294.59;;;28.85;34.82
68456;BME280;55437;55.046;38.838;2023-07-31T09:51:04;99290.22;;;28.92;34.70
68456;BME280;55437;55.046;38.838;2023-07-31T09:53:31;99279.56;;;29.00;35.88
68456;BME280;55437;55.046;38.838;2023-07-31T09:56:00;99283.16;;;29.07;36.17
68456;BME280;55437;55.046;38.838;2023-07-31T09:58:46;99288.31;;;29.00;35.41
68456;BME280;55437;55.046;38.838;2023-07-31T10:01:12;99293.34;;;28.95;36.22
68456;BME280;55437;55.046;38.838;2023-07-31T10:03:40;99285.22;;;28.97;36.62
68456;BME280;55437;55.046;38.838;2023-07-31T10:06:07;99287.13;;;29.03;36.62
68456;BME280;55437;55.046;38.838;2023-07-31T10:08:36;99282.97;;;29.09;36.34
68456;BME280;55437;55.046;38.838;2023-07-31T10:11:04;99284.59;;;29.10;34.79
68456;BME280;55437;55.046;38.838;2023-07-31T10:13:30;99286.94;;;28.90;34.54
68456;BME280;55437;55.046;38.838;2023-07-31T10:16:00;99286.75;;;28.91;35.68
68456;BME280;55437;55.046;38.838;2023-07-31T10:18:27;99287.56;;;28.92;35.86
68456;BME280;55437;55.046;38.838;2023-07-31T10:20:54;99299.69;;;28.63;36.35
68456;BME280;55437;55.046;38.838;2023-07-31T10:23:23;99291.69;;;28.26;37.01
68456;BME280;55437;55.046;38.838;2023-07-31T10:25:52;99292.31;;;28.05;37.73
68456;BME280;55437;55.046;38.838;2023-07-31T10:28:19;99287.16;;;28.12;37.64
68456;BME280;55437;55.046;38.838;2023-07-31T10:30:45;99286.78;;;28.23;37.42
68456;BME280;55437;55.046;38.838;2023-07-31T10:33:11;99293.88;;;28.14;38.69
68456;BME280;55437;55.046;38.838;2023-07-31T10:35:37;99296.34;;;28.16;37.34
68456;BME280;55437;55.046;38.838;2023-07-31T10:38:10;99289.97;;;28.10;36.48
68456;BME280;55437;55.046;38.838;2023-07-31T10:40:40;99291.25;;;28.14;36.56
68456;BME280;55437;55.046;38.838;2023-07-31T10:43:06;99292.06;;;28.23;37.35
68456;BME280;55437;55.046;38.838;2023-07-31T10:45:37;99300.19;;;28.13;37.45
68456;BME280;55437;55.046;38.838;2023-07-31T10:48:15;99293.09;;;27.83;38.04
68456;BME280;55437;55.046;38.838;2023-07-31T10:50:51;99293.16;;;27.67;38.74
68456;BME280;55437;55.046;38.838;2023-07-31T10:53:31;99290.50;;;27.67;38.33
68456;BME280;55437;55.046;38.838;2023-07-31T10:56:02;99296.00;;;27.65;38.70
68456;BME280;55437;55.046;38.838;2023-07-31T10:58:30;99298.47;;;27.58;38.58
68456;BME280;55437;55.046;38.838;2023-07-31T11:01:16;99293.69;;;27.46;38.78
68456;BME280;55437;55.046;38.838;2023-07-31T11:03:43;99290.81;;;27.24;39.50
68456;BME280;55437;55.046;38.838;2023-07-31T11:06:09;99294.59;;;27.22;39.83
68456;BME280;55437;55.046;38.838;2023-07-31T11:08:40;99292.63;;;27.24;39.81
68456;BME280;55437;55.046;38.838;2023-07-31T11:11:09;99288.69;;;27.12;39.52
68456;BME280;55437;55.046;38.838;2023-07-31T11:13:45;99293.81;;;26.89;39.92
68456;BME280;55437;55.046;38.838;2023-07-31T11:16:15;99289.34;;;26.81;40.06
68456;BME280;55437;55.046;38.838;2023-07-31T11:18:46;99287.22;;;26.85;39.85
68456;BME280;55437;55.046;38.838;2023-07-31T11:21:31;99284.44;;;26.95;39.62
68456;BME280;55437;55.046;38.838;2023-07-31T11:24:01;99287.91;;;27.03;39.52
68456;BME280;55437;55.046;38.838;2023-07-31T11:26:27;99283.44;;;26.96;39.79
68456;BME280;55437;55.046;38.838;2023-07-31T11:28:53;99282.13;;;26.75;39.50
68456;BME280;55437;55.046;38.838;2023-07-31T11:31:19;99281.31;;;26.67;39.00
68456;BME280;55437;55.046;38.838;2023-07-31T11:33:45;99280.78;;;26.71;38.95
68456;BME280;55437;55.046;38.838;2023-07-31T11:36:18;99283.25;;;26.81;38.91
68456;BME280;55437;55.046;38.838;2023-07-31T11:38:45;99276.34;;;26.88;38.36
68456;BME280;55437;55.046;38.838;2023-07-31T11:41:14;99273.38;;;26.91;37.21
68456;BME280;55437;55.046;38.838;2023-07-31T11:43:41;99276.69;;;27.01;38.01
68456;BME280;55437;55.046;38.838;2023-07-31T11:46:07;99275.03;;;27.08;38.51
68456;BME280;55437;55.046;38.838;2023-07-31T11:48:34;99270.75;;;27.15;38.72
68456;BME280;55437;55.046;38.838;2023-07-31T11:51:06;99267.56;;;27.20;38.33
68456;BME280;55437;55.046;38.838;2023-07-31T11:53:57;99261.97;;;27.23;37.92
68456;BME280;55437;55.046;38.838;2023-07-31T11:56:24;99271.38;;;27.25;38.06
68456;BME280;55437;55.046;38.838;2023-07-31T11:58:59;99258.34;;;27.24;37.76
68456;BME280;55437;55.046;38.838;2023-07-31T12:01:27;99267.75;;;27.27;37.90
68456;BME280;55437;55.046;38.838;2023-07-31T12:03:56;99275.66;;;27.27;38.27
68456;BME280;55437;55.046;38.838;2023-07-31T12:06:32;99274.16;;;27.24;37.92
68456;BME280;55437;55.046;38.838;2023-07-31T12:09:03;99276.31;;;27.20;38.10
68456;BME280;55437;55.046;38.838;2023-07-31T12:11:30;99274.81;;;27.18;38.07
68456;BME280;55437;55.046;38.838;2023-07-31T12:13:56;99273.22;;;27.17;37.88
68456;BME280;55437;55.046;38.838;2023-07-31T12:16:26;99276.84;;;27.16;37.81
68456;BME280;55437;55.046;38.838;2023-07-31T12:18:53;99275.84;;;27.17;37.92
68456;BME280;55437;55.046;38.838;2023-07-31T12:21:19;99270.75;;;27.15;38.09
68456;BME280;55437;55.046;38.838;2023-07-31T12:23:45;99267.78;;;27.10;37.47
68456;BME280;55437;55.046;38.838;2023-07-31T12:26:15;99265.47;;;27.07;36.64
68456;BME280;55437;55.046;38.838;2023-07-31T12:28:47;99261.38;;;27.05;36.89
68456;BME280;55437;55.046;38.838;2023-07-31T12:31:16;99260.09;;;26.93;37.36
68456;BME280;55437;55.046;38.838;2023-07-31T12:33:43;99267.63;;;26.87;37.47
68456;BME280;55437;55.046;38.838;2023-07-31T12:36:12;99273.72;;;26.80;37.00
68456;BME280;55437;55.046;38.838;2023-07-31T12:38:39;99271.91;;;26.72;36.33
68456;BME280;55437;55.046;38.838;2023-07-31T12:41:05;99268.44;;;26.72;36.73
68456;BME280;55437;55.046;38.838;2023-07-31T12:43:35;99277.00;;;26.74;36.84
68456;BME280;55437;55.046;38.838;2023-07-31T12:46:02;99273.41;;;26.75;36.75
68456;BME280;55437;55.046;38.838;2023-07-31T12:48:29;99272.25;;;26.77;36.56
68456;BME280;55437;55.046;38.838;2023-07-31T12:50:55;99272.56;;;26.74;36.42
68456;BME280;55437;55.046;38.838;2023-07-31T12:53:21;99259.56;;;26.65;36.04
68456;BME280;55437;55.046;38.838;2023-07-31T12:55:47;99261.22;;;26.58;36.67
68456;BME280;55437;55.046;38.838;2023-07-31T12:58:13;99265.19;;;26.53;37.38
68456;BME280;55437;55.046;38.838;2023-07-31T13:00:39;99263.84;;;26.49;37.79